createdAt,value
2022-09-28T00:01:11.055Z,13.52
2022-09-28T00:06:19.334Z,10.15
2022-09-28T00:11:24.919Z,11.10
2022-09-28T00:16:30.766Z,10.70
2022-09-28T00:21:37.831Z,9.73
2022-09-28T00:26:44.311Z,13.35
2022-09-28T00:31:49.234Z,10.32
2022-09-28T00:36:54.836Z,10.00
2022-09-28T00:41:58.941Z,10.82
2022-09-28T00:47:06.107Z,11.17
2022-09-28T00:52:15.116Z,8.73
2022-09-28T00:57:19.302Z,9.25
2022-09-28T01:02:22.935Z,10.57
2022-09-28T01:07:28.715Z,10.73
2022-09-28T01:12:32.038Z,10.32
2022-09-28T01:17:49.670Z,7.88
2022-09-28T01:23:31.417Z,9.75
2022-09-28T01:28:36.943Z,10.68
2022-09-28T01:33:46.049Z,9.07
2022-09-28T01:38:54.371Z,9.38
2022-09-28T01:44:03.091Z,10.13
2022-09-28T01:49:13.185Z,9.55
2022-09-28T01:54:23.572Z,9.10
2022-09-28T01:59:32.753Z,8.60
2022-09-28T02:04:42.421Z,10.68
2022-09-28T02:09:50.882Z,10.32
2022-09-28T02:15:00.781Z,7.90
2022-09-28T02:20:05.389Z,8.27
2022-09-28T02:25:12.806Z,7.82
2022-09-28T02:30:18.846Z,7.03
2022-09-28T02:35:23.854Z,7.68
2022-09-28T02:40:32.758Z,7.50
2022-09-28T02:45:50.706Z,6.72
2022-09-28T02:51:06.808Z,7.47
2022-09-28T02:56:28.079Z,8.13
2022-09-28T03:01:40.077Z,7.40
2022-09-28T03:06:50.593Z,7.15
2022-09-28T03:11:58.954Z,6.18
2022-09-28T03:17:04.507Z,7.18
2022-09-28T03:22:08.882Z,8.57
2022-09-28T03:27:12.864Z,7.20
2022-09-28T03:32:17.619Z,5.53
2022-09-28T03:37:21.675Z,7.07
2022-09-28T03:42:25.041Z,7.37
2022-09-28T03:47:30.549Z,6.13
2022-09-28T03:52:33.982Z,7.78
2022-09-28T03:57:38.506Z,5.13
2022-09-28T04:02:43.286Z,8.48
2022-09-28T04:07:47.280Z,6.55
2022-09-28T04:12:51.061Z,6.73
2022-09-28T04:17:56.530Z,6.65
2022-09-28T04:22:59.811Z,9.70
2022-09-28T04:28:21.587Z,6.13
2022-09-28T04:33:26.278Z,5.68
2022-09-28T04:38:48.813Z,6.03
2022-09-28T04:43:53.830Z,9.70
2022-09-28T04:48:59.300Z,5.25
2022-09-28T04:54:02.801Z,4.68
2022-09-28T04:59:07.102Z,7.93
2022-09-28T05:04:11.750Z,6.18
2022-09-28T05:09:15.963Z,6.45
2022-09-28T05:14:19.914Z,5.50
2022-09-28T05:19:25.405Z,5.00
2022-09-28T05:24:28.688Z,7.35
2022-09-28T05:29:32.885Z,5.28
2022-09-28T05:34:37.711Z,6.38
2022-09-28T05:44:44.814Z,3.80
2022-09-28T05:49:50.190Z,4.32
2022-09-28T05:54:53.460Z,3.83
2022-09-28T05:59:57.537Z,6.28
2022-09-28T06:05:02.198Z,3.35
2022-09-28T06:10:07.973Z,4.97
2022-09-28T06:20:16.761Z,4.18
2022-09-28T06:25:20.832Z,2.72
2022-09-28T06:30:28.559Z,3.67
2022-09-28T06:35:35.098Z,5.63
2022-09-28T06:40:39.662Z,2.83
2022-09-28T06:45:44.658Z,4.22
2022-09-28T06:50:52.506Z,2.35
2022-09-28T06:55:57.726Z,2.58
2022-09-28T07:01:02.112Z,3.25
2022-09-28T07:06:07.950Z,3.53
2022-09-28T07:11:13.223Z,2.42
2022-09-28T07:16:17.398Z,3.00
2022-09-28T07:21:29.567Z,3.72
2022-09-28T07:26:34.871Z,3.20
2022-09-28T07:31:39.103Z,3.03
2022-09-28T07:36:44.607Z,2.78
2022-09-28T07:41:48.550Z,3.72
2022-09-28T07:46:52.830Z,2.77
2022-09-28T07:51:58.325Z,5.10
2022-09-28T07:57:02.265Z,2.40
2022-09-28T08:02:06.540Z,2.70
2022-09-28T08:07:13.533Z,2.65
2022-09-28T08:12:19.812Z,2.10
2022-09-28T08:17:23.917Z,3.17
2022-09-28T08:22:30.425Z,2.20
2022-09-28T08:27:34.518Z,3.38
2022-09-28T08:32:37.785Z,2.58
2022-09-28T08:37:47.292Z,2.65
2022-09-28T08:42:58.020Z,3.38
2022-09-28T08:48:22.873Z,2.53
2022-09-28T08:53:39.709Z,3.40
2022-09-28T08:58:49.127Z,3.30
2022-09-28T09:03:52.764Z,2.50
2022-09-28T09:09:06.162Z,4.05
2022-09-28T09:14:28.377Z,2.30
2022-09-28T09:19:37.865Z,3.88
2022-09-28T09:24:50.295Z,1.80
2022-09-28T09:30:06.567Z,2.10
2022-09-28T09:35:31.741Z,4.50
2022-09-28T09:40:52.867Z,2.72
2022-09-28T09:46:06.601Z,4.13
2022-09-28T09:51:17.846Z,2.78
2022-09-28T09:56:35.452Z,2.80
2022-09-28T10:01:41.972Z,2.70
2022-09-28T10:06:46.093Z,2.88
2022-09-28T10:11:52.750Z,2.78
2022-09-28T10:16:59.791Z,3.72
2022-09-28T10:22:08.083Z,2.20
2022-09-28T10:27:17.118Z,2.90
2022-09-28T10:32:23.933Z,3.80
2022-09-28T10:37:28.063Z,4.03
2022-09-28T10:42:36.261Z,3.30
2022-09-28T10:47:40.604Z,4.45
2022-09-28T10:52:46.380Z,3.63
2022-09-28T10:57:52.025Z,4.68
2022-09-28T11:02:55.453Z,3.20
2022-09-28T11:08:01.838Z,2.83
2022-09-28T11:13:10.892Z,3.42
2022-09-28T11:18:26.679Z,4.57
2022-09-28T11:23:32.281Z,4.80
2022-09-28T11:28:39.264Z,3.72
2022-09-28T11:33:46.138Z,6.47
2022-09-28T11:38:59.820Z,3.33
2022-09-28T11:44:29.504Z,3.70
2022-09-28T11:49:41.960Z,4.10
2022-09-28T11:54:49.908Z,4.15
2022-09-28T12:00:00.315Z,3.60
2022-09-28T12:05:18.497Z,4.65
2022-09-28T12:10:38.769Z,3.80
2022-09-28T12:21:35.632Z,18.25
2022-09-28T12:26:47.618Z,3.03
2022-09-28T12:32:01.891Z,5.18
2022-09-28T12:37:21.987Z,3.50
2022-09-28T12:42:42.493Z,3.70
2022-09-28T12:48:19.108Z,5.15
2022-09-28T12:53:42.129Z,4.55
2022-09-28T12:59:01.129Z,4.15
2022-09-28T13:04:45.215Z,3.58
2022-09-28T13:10:02.162Z,4.97
2022-09-28T13:15:36.636Z,4.25
2022-09-28T13:20:53.816Z,3.60
2022-09-28T13:26:05.418Z,4.05
2022-09-28T13:31:11.137Z,4.47
2022-09-28T13:36:47.848Z,4.43
2022-09-28T13:41:52.604Z,6.13
2022-09-28T13:47:11.028Z,4.13
2022-09-28T13:52:32.055Z,4.75
2022-09-28T13:57:45.317Z,4.60
2022-09-28T14:02:54.451Z,3.67
2022-09-28T14:08:20.991Z,3.70
2022-09-28T14:14:07.374Z,4.18
2022-09-28T14:19:19.060Z,5.22
2022-09-28T14:24:46.164Z,5.47
2022-09-28T14:29:56.296Z,4.25
2022-09-28T14:35:03.776Z,6.80
2022-09-28T14:40:37.246Z,5.28
2022-09-28T14:45:46.653Z,4.60
2022-09-28T14:50:51.099Z,5.18
2022-09-28T14:56:01.789Z,3.45
2022-09-28T15:01:09.353Z,4.70
2022-09-28T15:06:17.081Z,4.50
2022-09-28T15:11:24.914Z,5.57
2022-09-28T15:16:33.029Z,5.10
2022-09-28T15:21:39.133Z,3.80
2022-09-28T15:26:50.152Z,5.15
2022-09-28T15:31:54.802Z,5.53
2022-09-28T15:42:06.004Z,4.50
2022-09-28T15:47:14.743Z,3.78
2022-09-28T15:52:28.783Z,4.53
2022-09-28T15:57:39.786Z,6.77
2022-09-28T16:03:00.515Z,4.85
2022-09-28T16:08:05.161Z,6.60
2022-09-28T16:13:15.756Z,7.68
2022-09-28T16:18:24.305Z,6.25
2022-09-28T16:23:31.322Z,5.95
2022-09-28T16:28:52.992Z,6.22
2022-09-28T16:33:59.552Z,5.20
2022-09-28T16:39:04.188Z,5.90
2022-09-28T16:44:17.030Z,5.88
2022-09-28T16:49:21.188Z,6.05
2022-09-28T16:54:43.739Z,4.28
2022-09-28T16:59:49.336Z,4.45
2022-09-28T17:04:52.834Z,4.28
2022-09-28T17:09:56.326Z,4.32
2022-09-28T17:15:01.373Z,4.25
2022-09-28T17:20:18.328Z,4.25
2022-09-28T17:25:24.119Z,5.20
2022-09-28T17:30:29.802Z,6.90
2022-09-28T17:35:37.506Z,6.80
2022-09-28T17:40:46.627Z,8.90
2022-09-28T17:45:52.745Z,7.80
2022-09-28T17:50:57.182Z,7.50
2022-09-28T17:56:01.408Z,6.22
2022-09-28T18:01:07.561Z,7.57
2022-09-28T18:06:20.575Z,6.32
2022-09-28T18:11:25.205Z,8.30
2022-09-28T18:16:31.044Z,7.43
2022-09-28T18:21:35.563Z,8.82
2022-09-28T18:26:40.130Z,7.57
2022-09-28T18:31:45.742Z,6.90
2022-09-28T18:36:49.870Z,7.82
2022-09-28T18:41:53.906Z,7.97
2022-09-28T18:46:59.543Z,7.23
2022-09-28T18:52:03.604Z,9.05
2022-09-28T18:57:07.947Z,8.70
2022-09-28T19:02:13.646Z,8.93
2022-09-28T19:07:18.521Z,8.73
2022-09-28T19:17:27.921Z,9.15
2022-09-28T19:22:31.946Z,11.85
2022-09-28T19:27:36.107Z,9.77
2022-09-28T19:32:42.578Z,13.55
2022-09-28T19:37:47.513Z,13.20
2022-09-28T19:42:50.892Z,9.23
2022-09-28T19:47:59.754Z,10.48
2022-09-28T19:53:04.273Z,10.35
2022-09-28T19:58:08.476Z,12.85
2022-09-28T20:03:13.303Z,11.65
2022-09-28T20:13:20.168Z,15.70
2022-09-28T20:18:25.621Z,9.00
2022-09-28T20:23:29.031Z,8.57
2022-09-28T20:28:33.712Z,7.50
2022-09-28T20:33:39.069Z,9.63
2022-09-28T20:38:43.857Z,10.23
2022-09-28T20:48:55.809Z,7.32
2022-09-28T20:54:00.230Z,5.75
2022-09-28T20:59:04.210Z,10.00
2022-09-28T21:04:09.775Z,8.00
2022-09-28T21:09:13.442Z,8.55
2022-09-28T21:14:17.289Z,7.78
2022-09-28T21:19:23.315Z,10.53
2022-09-28T21:24:26.963Z,8.43
2022-09-28T21:29:31.092Z,8.55
2022-09-28T21:34:36.099Z,10.20
2022-09-28T21:39:40.207Z,7.95
2022-09-28T21:44:43.485Z,7.82
2022-09-28T21:49:48.892Z,8.73
2022-09-28T21:54:52.186Z,8.70
2022-09-28T21:59:56.906Z,10.43
2022-09-28T22:10:04.968Z,8.57
2022-09-28T22:15:09.531Z,10.63
2022-09-28T22:20:14.993Z,10.07
2022-09-28T22:25:19.521Z,11.80
2022-09-28T22:30:23.612Z,10.32
2022-09-28T22:35:29.131Z,11.30
2022-09-28T22:40:33.240Z,11.35
2022-09-28T22:45:37.223Z,10.57
2022-09-28T22:50:50.103Z,12.87
2022-09-28T22:55:54.666Z,10.85
2022-09-28T23:00:59.095Z,11.63
2022-09-28T23:06:05.168Z,11.98
2022-09-28T23:11:09.381Z,10.75
2022-09-28T23:16:15.082Z,10.23
2022-09-28T23:21:21.733Z,8.38
2022-09-28T23:26:28.549Z,10.63
2022-09-28T23:31:34.680Z,10.20
2022-09-28T23:36:40.115Z,10.65
2022-09-28T23:41:44.106Z,9.88
2022-09-28T23:46:48.234Z,10.33
2022-09-28T23:51:53.814Z,9.45
2022-09-28T23:56:57.978Z,12.75
